createdAt,value
2022-11-29T00:00:09.438Z,100686.91
2022-11-29T00:02:41.031Z,100687.03
2022-11-29T00:05:09.571Z,100695.13
2022-11-29T00:07:38.129Z,100686.59
2022-11-29T00:10:07.352Z,100679.56
2022-11-29T00:12:36.318Z,100700.56
2022-11-29T00:15:04.985Z,100697.09
2022-11-29T00:17:32.966Z,100692.53
2022-11-29T00:20:02.325Z,100696.13
2022-11-29T00:22:30.443Z,100695.13
2022-11-29T00:24:58.369Z,100694.34
2022-11-29T00:27:26.399Z,100691.91
2022-11-29T00:29:54.962Z,100696.19
2022-11-29T00:32:23.706Z,100691.97
2022-11-29T00:34:51.635Z,100691.75
2022-11-29T00:37:20.846Z,100692.56
2022-11-29T00:39:48.729Z,100702.13
2022-11-29T00:42:16.710Z,100701.44
2022-11-29T00:44:45.773Z,100698.84
2022-11-29T00:47:13.851Z,100716.47
2022-11-29T00:49:42.000Z,100705.81
2022-11-29T00:52:10.349Z,100695.94
2022-11-29T00:54:39.599Z,100685.66
2022-11-29T00:57:07.583Z,100690.94
2022-11-29T00:59:35.363Z,100681.28
2022-11-29T01:02:03.304Z,100672.41
2022-11-29T01:04:31.508Z,100678.66
2022-11-29T01:06:59.646Z,100679.47
2022-11-29T01:09:27.464Z,100682.19
2022-11-29T01:11:56.761Z,100686.25
2022-11-29T01:14:24.684Z,100693.56
2022-11-29T01:16:59.566Z,100692.56
2022-11-29T01:19:29.563Z,100690.19
2022-11-29T01:22:15.905Z,100689.44
2022-11-29T01:24:56.950Z,100689.38
2022-11-29T01:27:55.054Z,100694.78
2022-11-29T01:30:22.849Z,100696.63
2022-11-29T01:33:25.866Z,100693.81
2022-11-29T01:35:56.304Z,100693.06
2022-11-29T01:38:24.315Z,100696.66
2022-11-29T01:41:01.883Z,100694.06
2022-11-29T01:43:31.818Z,100695.81
2022-11-29T01:46:01.017Z,100687.94
2022-11-29T01:48:34.303Z,100699.50
2022-11-29T01:51:02.850Z,100697.75
2022-11-29T01:53:30.970Z,100700.25
2022-11-29T01:56:02.622Z,100705.50
2022-11-29T01:58:33.457Z,100704.06
2022-11-29T02:01:02.908Z,100704.97
2022-11-29T02:03:31.005Z,100703.47
2022-11-29T02:05:59.707Z,100697.28
2022-11-29T02:08:32.818Z,100695.66
2022-11-29T02:11:27.380Z,100715.00
2022-11-29T02:14:07.979Z,100704.69
2022-11-29T02:16:43.080Z,100703.16
2022-11-29T02:19:31.166Z,100703.28
2022-11-29T02:22:06.541Z,100708.44
2022-11-29T02:24:57.558Z,100705.06
2022-11-29T02:28:08.244Z,100698.22
2022-11-29T02:30:58.161Z,100715.69
2022-11-29T02:34:08.552Z,100705.13
2022-11-29T02:36:48.563Z,100709.34
2022-11-29T02:39:49.569Z,100710.31
2022-11-29T02:42:56.976Z,100708.66
2022-11-29T02:45:37.591Z,100703.28
2022-11-29T02:48:22.965Z,100708.75
2022-11-29T02:50:58.764Z,100715.00
2022-11-29T02:53:33.367Z,100717.47
2022-11-29T02:56:16.243Z,100716.75
2022-11-29T02:58:52.266Z,100721.09
2022-11-29T03:01:27.880Z,100721.09
2022-11-29T03:04:09.443Z,100715.69
2022-11-29T03:06:46.999Z,100712.34
2022-11-29T03:09:25.820Z,100722.84
2022-11-29T03:12:01.075Z,100712.47
2022-11-29T03:14:39.265Z,100719.41
2022-11-29T03:17:18.280Z,100730.84
2022-11-29T03:20:07.461Z,100727.41
2022-11-29T03:22:48.195Z,100727.53
2022-11-29T03:25:31.317Z,100712.63
2022-11-29T03:28:04.285Z,100724.78
2022-11-29T03:30:35.557Z,100722.31
2022-11-29T03:33:12.796Z,100741.63
2022-11-29T03:35:51.761Z,100734.59
2022-11-29T03:38:29.202Z,100732.09
2022-11-29T03:41:04.146Z,100745.97
2022-11-29T03:43:41.520Z,100749.75
2022-11-29T03:46:13.311Z,100740.22
2022-11-29T03:48:45.903Z,100748.00
2022-11-29T03:51:17.340Z,100729.88
2022-11-29T03:53:56.381Z,100747.38
2022-11-29T03:56:29.580Z,100748.28
2022-11-29T03:59:11.114Z,100743.13
2022-11-29T04:02:04.380Z,100744.88
2022-11-29T04:05:10.059Z,100737.75
2022-11-29T04:07:50.870Z,100744.94
2022-11-29T04:10:37.269Z,100747.50
2022-11-29T04:13:35.615Z,100746.59
2022-11-29T04:16:35.043Z,100740.56
2022-11-29T04:19:23.917Z,100746.75
2022-11-29T04:22:14.656Z,100754.50
2022-11-29T04:25:07.475Z,100743.25
2022-11-29T04:27:44.702Z,100737.00
2022-11-29T04:30:19.324Z,100743.13
2022-11-29T04:33:41.211Z,100744.88
2022-11-29T04:36:39.020Z,100748.41
2022-11-29T04:39:40.301Z,100738.72
2022-11-29T04:42:50.142Z,100746.78
2022-11-29T04:45:42.295Z,100744.19
2022-11-29T04:48:24.652Z,100740.78
2022-11-29T04:51:05.044Z,100750.44
2022-11-29T04:53:49.106Z,100750.47
2022-11-29T04:56:32.121Z,100754.88
2022-11-29T04:59:06.745Z,100755.91
2022-11-29T05:01:55.141Z,100758.56
2022-11-29T05:04:30.590Z,100760.41
2022-11-29T05:07:04.283Z,100767.38
2022-11-29T05:09:48.291Z,100768.22
2022-11-29T05:12:24.451Z,100762.97
2022-11-29T05:15:15.583Z,100773.56
2022-11-29T05:17:56.284Z,100780.75
2022-11-29T05:20:35.899Z,100776.16
2022-11-29T05:23:25.618Z,100777.06
2022-11-29T05:26:06.262Z,100782.31
2022-11-29T05:28:46.241Z,100783.25
2022-11-29T05:31:30.267Z,100789.50
2022-11-29T05:34:31.671Z,100786.00
2022-11-29T05:37:16.043Z,100794.47
2022-11-29T05:39:58.642Z,100789.25
2022-11-29T05:43:03.004Z,100778.22
2022-11-29T05:45:50.775Z,100793.00
2022-11-29T05:48:35.807Z,100798.31
2022-11-29T05:51:17.262Z,100795.72
2022-11-29T05:54:10.474Z,100799.13
2022-11-29T05:57:00.588Z,100802.59
2022-11-29T05:59:30.837Z,100804.31
2022-11-29T06:02:12.625Z,100810.72
2022-11-29T06:05:03.635Z,100812.41
2022-11-29T06:07:41.742Z,100812.41
2022-11-29T06:10:17.637Z,100815.94
2022-11-29T06:12:55.811Z,100812.41
2022-11-29T06:15:59.051Z,100819.34
2022-11-29T06:18:47.882Z,100817.69
2022-11-29T06:21:30.048Z,100816.00
2022-11-29T06:24:39.680Z,100820.47
2022-11-29T06:27:32.719Z,100815.28
2022-11-29T06:30:07.396Z,100821.38
2022-11-29T06:32:42.227Z,100826.66
2022-11-29T06:35:33.489Z,100823.13
2022-11-29T06:38:12.281Z,100818.00
2022-11-29T06:40:42.285Z,100823.19
2022-11-29T06:43:10.643Z,100827.56
2022-11-29T06:45:40.097Z,100822.34
2022-11-29T06:48:13.507Z,100824.78
2022-11-29T06:50:51.777Z,100825.66
2022-11-29T06:53:26.293Z,100814.38
2022-11-29T06:56:04.194Z,100830.09
2022-11-29T06:58:44.841Z,100827.38
2022-11-29T07:01:25.455Z,100816.06
2022-11-29T07:04:09.123Z,100824.72
2022-11-29T07:06:40.548Z,100833.44
2022-11-29T07:09:21.273Z,100826.41
2022-11-29T07:11:52.663Z,100824.72
2022-11-29T07:14:21.354Z,100819.53
2022-11-29T07:16:57.457Z,100818.59
2022-11-29T07:19:38.025Z,100808.91
2022-11-29T07:22:14.854Z,100811.59
2022-11-29T07:24:58.174Z,100814.16
2022-11-29T07:27:36.146Z,100815.91
2022-11-29T07:30:12.634Z,100808.22
2022-11-29T07:32:58.773Z,100810.75
2022-11-29T07:35:39.852Z,100804.78
2022-11-29T07:38:18.840Z,100812.47
2022-11-29T07:40:54.310Z,100815.94
2022-11-29T07:43:41.905Z,100808.84
2022-11-29T07:46:10.293Z,100798.41
2022-11-29T07:48:39.573Z,100792.22
2022-11-29T07:51:07.632Z,100813.00
2022-11-29T07:53:41.388Z,100813.88
2022-11-29T07:56:10.439Z,100809.50
2022-11-29T07:58:40.152Z,100814.84
2022-11-29T08:01:08.517Z,100796.44
2022-11-29T08:03:36.833Z,100801.72
2022-11-29T08:06:08.213Z,100804.41
2022-11-29T08:08:42.252Z,100813.09
2022-11-29T08:11:12.679Z,100803.56
2022-11-29T08:13:42.160Z,100809.09
2022-11-29T08:16:18.932Z,100803.09
2022-11-29T08:18:48.217Z,100807.38
2022-11-29T08:21:18.132Z,100806.41
2022-11-29T08:23:46.151Z,100806.41
2022-11-29T08:26:18.128Z,100806.41
2022-11-29T08:28:51.718Z,100801.94
2022-11-29T08:31:21.447Z,100796.66
2022-11-29T08:33:49.474Z,100794.94
2022-11-29T08:36:20.122Z,100793.78
2022-11-29T08:38:50.993Z,100800.25
2022-11-29T08:41:21.124Z,100788.53
2022-11-29T08:43:51.769Z,100797.25
2022-11-29T08:46:19.787Z,100769.47
2022-11-29T08:48:51.270Z,100787.88
2022-11-29T08:51:19.049Z,100805.91
2022-11-29T08:53:51.947Z,100786.94
2022-11-29T08:59:12.705Z,100808.38
2022-11-29T09:01:42.974Z,100788.13
2022-11-29T09:04:13.557Z,100771.06
2022-11-29T09:06:44.582Z,100805.66
2022-11-29T09:09:12.632Z,100803.91
2022-11-29T09:11:40.533Z,100803.72
2022-11-29T09:14:15.814Z,100789.59
2022-11-29T09:16:44.047Z,100794.13
2022-11-29T09:19:18.423Z,100808.59
2022-11-29T09:21:47.919Z,100793.94
2022-11-29T09:24:18.798Z,100785.69
2022-11-29T09:26:49.012Z,100778.72
2022-11-29T09:29:19.409Z,100778.50
2022-11-29T09:31:47.896Z,100805.91
2022-11-29T09:34:19.048Z,100784.88
2022-11-29T09:36:47.862Z,100785.94
2022-11-29T09:39:19.005Z,100795.50
2022-11-29T09:42:02.692Z,100788.53
2022-11-29T09:44:43.436Z,100796.31
2022-11-29T09:47:33.135Z,100788.81
2022-11-29T09:50:21.796Z,100779.34
2022-11-29T09:53:03.343Z,100791.94
2022-11-29T09:55:48.796Z,100765.69
2022-11-29T09:58:47.480Z,100782.63
2022-11-29T10:01:56.204Z,100777.28
2022-11-29T10:04:32.521Z,100772.41
2022-11-29T10:07:12.946Z,100776.53
2022-11-29T10:09:49.258Z,100759.69
2022-11-29T10:12:38.929Z,100741.00
2022-11-29T10:15:18.545Z,100760.75
2022-11-29T10:18:21.107Z,100758.31
2022-11-29T10:21:06.699Z,100754.88
2022-11-29T10:23:54.081Z,100728.94
2022-11-29T10:26:25.897Z,100733.78
2022-11-29T10:29:12.357Z,100764.25
2022-11-29T10:31:49.753Z,100738.31
2022-11-29T10:35:03.119Z,100753.69
2022-11-29T10:37:37.651Z,100724.13
2022-11-29T10:40:13.584Z,100716.13
2022-11-29T10:42:55.018Z,100746.38
2022-11-29T10:45:31.801Z,100719.75
2022-11-29T10:48:08.047Z,100726.25
2022-11-29T10:50:38.131Z,100720.59
2022-11-29T10:53:16.135Z,100752.34
2022-11-29T10:55:51.289Z,100760.69
2022-11-29T10:58:28.215Z,100734.66
2022-11-29T11:01:06.203Z,100743.31
2022-11-29T11:03:38.796Z,100758.63
2022-11-29T11:06:13.722Z,100784.16
2022-11-29T11:08:51.506Z,100787.53
2022-11-29T11:11:29.876Z,100792.28
2022-11-29T11:14:03.330Z,100788.63
2022-11-29T11:16:36.999Z,100778.28
2022-11-29T11:19:33.885Z,100784.13
2022-11-29T11:22:05.099Z,100811.22
2022-11-29T11:24:43.838Z,100795.78
2022-11-29T11:27:14.270Z,100808.16
2022-11-29T11:29:48.040Z,100816.44
2022-11-29T11:32:19.207Z,100814.97
2022-11-29T11:34:53.737Z,100834.06
2022-11-29T11:37:27.592Z,100833.13
2022-11-29T11:40:21.798Z,100845.34
2022-11-29T11:42:58.855Z,100845.69
2022-11-29T11:45:35.730Z,100851.34
2022-11-29T11:48:12.708Z,100860.44
2022-11-29T11:50:45.756Z,100850.06
2022-11-29T11:53:24.090Z,100870.84
2022-11-29T11:56:01.736Z,100874.75
2022-11-29T11:58:32.948Z,100851.97
2022-11-29T12:01:26.329Z,100879.66
2022-11-29T12:04:03.893Z,100894.84
2022-11-29T12:06:44.418Z,100887.75
2022-11-29T12:09:27.435Z,100904.66
2022-11-29T12:12:06.220Z,100917.06
2022-11-29T12:14:58.376Z,100918.06
2022-11-29T12:17:37.336Z,100938.72
2022-11-29T12:20:34.456Z,100927.72
2022-11-29T12:23:31.179Z,100967.78
2022-11-29T12:26:05.294Z,100974.28
2022-11-29T12:28:40.159Z,100956.31
2022-11-29T12:31:21.967Z,100994.19
2022-11-29T12:34:01.996Z,100997.25
2022-11-29T12:36:42.836Z,101006.41
2022-11-29T12:39:26.711Z,101013.25
2022-11-29T12:41:58.809Z,101027.69
2022-11-29T12:44:43.362Z,101034.63
2022-11-29T12:47:35.552Z,101043.09
2022-11-29T12:50:13.583Z,101055.44
2022-11-29T12:52:49.188Z,101057.38
2022-11-29T12:55:25.847Z,101079.91
2022-11-29T12:58:04.610Z,101070.91
2022-11-29T13:00:40.073Z,101081.41
2022-11-29T13:03:21.642Z,101101.34
2022-11-29T13:06:00.385Z,101102.63
2022-11-29T13:09:04.305Z,101118.59
2022-11-29T13:11:35.542Z,101123.19
2022-11-29T13:14:41.672Z,101131.25
2022-11-29T13:17:04.187Z,101140.75
2022-11-29T13:19:40.739Z,101155.28
2022-11-29T13:22:18.208Z,101149.50
2022-11-29T13:24:51.898Z,101168.41
2022-11-29T13:27:28.254Z,101172.88
2022-11-29T13:30:06.106Z,101180.03
2022-11-29T13:32:38.496Z,101185.13
2022-11-29T13:35:24.963Z,101195.81
2022-11-29T13:37:58.249Z,101195.16
2022-11-29T13:40:38.094Z,101199.75
2022-11-29T13:43:18.248Z,101214.84
2022-11-29T13:45:53.618Z,101211.94
2022-11-29T13:48:37.063Z,101218.94
2022-11-29T13:51:30.555Z,101235.59
2022-11-29T13:54:04.094Z,101242.97
2022-11-29T13:56:42.914Z,101251.75
2022-11-29T13:59:23.811Z,101252.63
2022-11-29T14:01:54.534Z,101246.91
2022-11-29T14:04:41.535Z,101263.41
2022-11-29T14:07:17.606Z,101270.78
2022-11-29T14:09:59.559Z,101282.16
2022-11-29T14:12:42.839Z,101279.53
2022-11-29T14:15:22.755Z,101286.56
2022-11-29T14:17:54.929Z,101291.97
2022-11-29T14:20:55.273Z,101300.84
2022-11-29T14:23:41.483Z,101310.78
2022-11-29T14:26:30.656Z,101320.50
2022-11-29T14:29:00.587Z,101324.13
2022-11-29T14:31:56.167Z,101328.53
2022-11-29T14:34:42.884Z,101338.44
2022-11-29T14:37:35.327Z,101342.13
2022-11-29T14:40:27.593Z,101347.44
2022-11-29T14:43:06.130Z,101343.13
2022-11-29T14:45:40.018Z,101353.00
2022-11-29T14:48:26.817Z,101343.47
2022-11-29T14:51:09.326Z,101358.34
2022-11-29T14:53:47.232Z,101367.19
2022-11-29T14:56:43.385Z,101366.31
2022-11-29T14:59:43.385Z,101382.16
2022-11-29T15:02:26.668Z,101386.69
2022-11-29T15:05:12.623Z,101382.34
2022-11-29T15:07:46.919Z,101397.34
2022-11-29T15:10:26.434Z,101394.63
2022-11-29T15:12:56.540Z,101403.53
2022-11-29T15:15:40.867Z,101407.84
2022-11-29T15:18:26.097Z,101407.91
2022-11-29T15:21:14.311Z,101421.94
2022-11-29T15:23:43.328Z,101421.09
2022-11-29T15:26:19.682Z,101428.16
2022-11-29T15:28:49.002Z,101428.13
2022-11-29T15:31:21.028Z,101431.66
2022-11-29T15:33:50.512Z,101429.03
2022-11-29T15:36:20.787Z,101428.94
2022-11-29T15:38:50.271Z,101443.97
2022-11-29T15:41:29.354Z,101444.03
2022-11-29T15:43:59.259Z,101449.22
2022-11-29T15:46:29.210Z,101453.66
2022-11-29T15:49:15.806Z,101459.72
2022-11-29T15:51:44.036Z,101459.81
2022-11-29T15:54:16.541Z,101470.31
2022-11-29T15:56:48.540Z,101473.00
2022-11-29T15:59:33.324Z,101479.16
2022-11-29T16:02:08.723Z,101486.16
2022-11-29T16:04:45.120Z,101480.88
2022-11-29T16:07:22.758Z,101495.78
2022-11-29T16:09:56.937Z,101489.78
2022-11-29T16:12:27.903Z,101504.69
2022-11-29T16:14:57.743Z,101514.34
2022-11-29T16:17:27.958Z,101517.03
2022-11-29T16:20:23.473Z,101515.31
2022-11-29T16:23:12.708Z,101517.13
2022-11-29T16:25:56.016Z,101518.06
2022-11-29T16:28:32.541Z,101519.91
2022-11-29T16:31:01.911Z,101531.31
2022-11-29T16:33:29.999Z,101548.00
2022-11-29T16:36:12.417Z,101548.91
2022-11-29T16:38:50.387Z,101554.16
2022-11-29T16:41:36.753Z,101561.19
2022-11-29T16:44:28.534Z,101571.78
2022-11-29T16:47:12.362Z,101577.06
2022-11-29T16:49:40.452Z,101581.44
2022-11-29T16:52:26.024Z,101580.50
2022-11-29T16:54:54.018Z,101595.50
2022-11-29T16:57:22.355Z,101596.38
2022-11-29T16:59:51.929Z,101605.19
2022-11-29T17:02:19.851Z,101613.94
2022-11-29T17:04:48.724Z,101616.50
2022-11-29T17:07:28.577Z,101615.72
2022-11-29T17:09:58.020Z,101621.78
2022-11-29T17:12:26.143Z,101617.47
2022-11-29T17:14:55.974Z,101629.81
2022-11-29T17:17:24.171Z,101642.06
2022-11-29T17:19:56.269Z,101643.81
2022-11-29T17:22:25.827Z,101656.13
2022-11-29T17:24:54.324Z,101655.28
2022-11-29T17:27:26.710Z,101663.16
2022-11-29T17:29:57.108Z,101664.94
2022-11-29T17:32:30.981Z,101680.72
2022-11-29T17:35:01.535Z,101678.09
2022-11-29T17:37:32.566Z,101687.78
2022-11-29T17:40:01.591Z,101691.25
2022-11-29T17:42:32.543Z,101703.53
2022-11-29T17:45:05.070Z,101704.41
2022-11-29T17:47:46.004Z,101710.53
2022-11-29T17:50:15.879Z,101707.94
2022-11-29T17:52:55.052Z,101706.28
2022-11-29T17:55:29.675Z,101705.38
2022-11-29T17:57:57.897Z,101735.91
2022-11-29T18:00:27.911Z,101730.81
2022-11-29T18:02:55.821Z,101755.25
2022-11-29T18:05:28.979Z,101740.53
2022-11-29T18:08:21.870Z,101779.84
2022-11-29T18:11:09.445Z,101774.69
2022-11-29T18:13:39.768Z,101797.53
2022-11-29T18:16:12.052Z,101829.88
2022-11-29T18:19:03.368Z,101819.47
2022-11-29T18:21:41.239Z,101837.03
2022-11-29T18:24:13.655Z,101874.72
2022-11-29T18:26:43.111Z,101872.09
2022-11-29T18:29:12.026Z,101887.88
2022-11-29T18:31:47.412Z,101883.53
2022-11-29T18:34:17.693Z,101878.34
2022-11-29T18:36:57.463Z,101904.66
2022-11-29T18:39:31.105Z,101920.41
2022-11-29T18:42:13.759Z,101935.34
2022-11-29T18:44:43.184Z,101958.16
2022-11-29T18:48:05.683Z,101962.53
2022-11-29T18:50:41.482Z,101961.69
2022-11-29T18:53:10.976Z,101950.34
2022-11-29T18:56:26.053Z,101977.47
2022-11-29T18:59:11.158Z,101996.78
2022-11-29T19:02:20.350Z,101997.69
2022-11-29T19:05:18.185Z,102009.09
2022-11-29T19:07:51.526Z,102002.09
2022-11-29T19:10:31.405Z,102026.66
2022-11-29T19:13:02.010Z,101999.53
2022-11-29T19:15:31.994Z,102009.13
2022-11-29T19:18:05.517Z,102039.84
2022-11-29T19:20:43.215Z,102040.72
2022-11-29T19:23:21.946Z,102025.00
2022-11-29T19:26:23.335Z,102067.09
2022-11-29T19:28:52.360Z,102067.97
2022-11-29T19:31:25.245Z,102044.34
2022-11-29T19:33:56.859Z,102057.44
2022-11-29T19:36:42.798Z,102053.97
2022-11-29T19:39:24.221Z,102094.31
2022-11-29T19:41:59.393Z,102089.06
2022-11-29T19:45:15.255Z,102078.53
2022-11-29T19:47:48.314Z,102065.41
2022-11-29T19:50:17.615Z,102086.44
2022-11-29T19:52:47.721Z,102071.56
2022-11-29T19:55:17.191Z,102030.31
2022-11-29T19:57:48.106Z,102046.09
2022-11-29T20:00:18.924Z,102059.19
2022-11-29T20:02:47.126Z,102053.09
2022-11-29T20:05:23.105Z,102063.59
2022-11-29T20:07:52.751Z,102050.47
2022-11-29T20:10:22.282Z,102040.81
2022-11-29T20:12:52.076Z,102057.50
2022-11-29T20:15:26.354Z,102073.25
2022-11-29T20:17:55.607Z,102069.75
2022-11-29T20:20:30.007Z,102046.09
2022-11-29T20:22:59.143Z,102031.19
2022-11-29T20:25:31.175Z,102046.03
2022-11-29T20:28:00.436Z,102047.81
2022-11-29T20:30:33.234Z,102047.78
2022-11-29T20:33:03.981Z,102038.13
2022-11-29T20:35:37.422Z,102025.88
2022-11-29T20:38:41.220Z,101993.44
2022-11-29T20:41:42.478Z,102000.44
2022-11-29T20:44:42.863Z,102007.44
2022-11-29T20:47:32.099Z,102003.94
2022-11-29T20:50:01.098Z,101987.28
2022-11-29T20:52:43.510Z,101978.47
2022-11-29T20:58:02.791Z,101949.53
2022-11-29T21:00:32.793Z,101953.91
2022-11-29T21:03:03.382Z,101949.50
2022-11-29T21:05:40.448Z,101935.53
2022-11-29T21:08:14.008Z,101946.00
2022-11-29T21:10:57.459Z,101935.53
2022-11-29T21:13:31.552Z,101962.66
2022-11-29T21:16:38.939Z,101952.13
2022-11-29T21:19:25.846Z,101925.88
2022-11-29T21:22:06.620Z,101942.47
2022-11-29T21:24:54.204Z,101956.53
2022-11-29T21:27:38.623Z,101926.69
2022-11-29T21:30:36.465Z,101950.38
2022-11-29T21:33:11.773Z,101951.25
2022-11-29T21:35:43.010Z,101938.13
2022-11-29T21:38:20.318Z,101917.13
2022-11-29T21:40:56.137Z,101922.34
2022-11-29T21:43:50.192Z,101947.75
2022-11-29T21:46:17.238Z,101921.44
2022-11-29T21:48:48.116Z,101923.19
2022-11-29T21:51:22.200Z,101897.81
2022-11-29T21:54:06.558Z,101907.44
2022-11-29T21:57:02.881Z,101917.91
2022-11-29T22:00:17.583Z,101891.66
2022-11-29T22:02:59.011Z,101910.94
2022-11-29T22:05:31.648Z,101916.13
2022-11-29T22:08:00.632Z,101893.41
2022-11-29T22:10:29.178Z,101910.00
2022-11-29T22:13:06.112Z,101912.63
2022-11-29T22:15:38.923Z,101909.13
2022-11-29T22:18:15.716Z,101904.75
2022-11-29T22:20:53.080Z,101906.50
2022-11-29T22:23:30.001Z,101875.88
2022-11-29T22:26:11.703Z,101889.03
2022-11-29T22:28:41.129Z,101916.22
2022-11-29T22:31:14.072Z,101901.31
2022-11-29T22:33:51.840Z,101889.06
2022-11-29T22:36:20.431Z,101919.72
2022-11-29T22:38:50.225Z,101895.19
2022-11-29T22:41:19.241Z,101888.19
2022-11-29T22:43:49.031Z,101878.53
2022-11-29T22:46:21.740Z,101871.56
2022-11-29T22:50:04.586Z,101882.09
2022-11-29T22:52:57.959Z,101903.94
2022-11-29T22:55:26.998Z,101905.69
2022-11-29T22:57:56.608Z,101905.69
2022-11-29T23:00:25.269Z,101903.06
2022-11-29T23:03:00.368Z,101888.19
2022-11-29T23:05:32.381Z,101871.56
2022-11-29T23:08:05.161Z,101859.31
2022-11-29T23:10:38.877Z,101866.28
2022-11-29T23:13:08.518Z,101878.47
2022-11-29T23:15:52.586Z,101884.72
2022-11-29T23:18:33.091Z,101890.81
2022-11-29T23:21:20.246Z,101895.19
2022-11-29T23:23:56.730Z,101869.84
2022-11-29T23:26:42.977Z,101891.75
2022-11-29T23:29:24.132Z,101901.41
2022-11-29T23:32:21.659Z,101890.91
2022-11-29T23:35:30.078Z,101892.66
2022-11-29T23:38:14.121Z,101862.91
2022-11-29T23:40:58.420Z,101862.91
2022-11-29T23:44:12.873Z,101873.34
2022-11-29T23:46:44.090Z,101868.06
2022-11-29T23:49:24.962Z,101870.69
2022-11-29T23:51:55.555Z,101854.94
2022-11-29T23:54:33.888Z,101849.66
2022-11-29T23:57:06.188Z,101849.69
2022-11-29T23:59:43.211Z,101826.94
